createdAt,value
2018-06-28T00:00:56.727Z,1016.08
2018-06-28T00:01:56.739Z,1016.09
2018-06-28T00:02:56.705Z,1016.05
2018-06-28T00:03:56.715Z,1016.12
2018-06-28T00:04:56.681Z,1016.10
2018-06-28T00:05:56.625Z,1016.11
2018-06-28T00:06:56.694Z,1016.10
2018-06-28T00:07:56.650Z,1016.14
2018-06-28T00:08:56.775Z,1016.11
2018-06-28T00:09:56.642Z,1016.13
2018-06-28T00:10:56.627Z,1016.17
2018-06-28T00:11:56.647Z,1016.16
2018-06-28T00:12:56.596Z,1016.16
2018-06-28T00:13:56.592Z,1016.18
2018-06-28T00:14:56.575Z,1016.15
2018-06-28T00:15:56.582Z,1016.13
2018-06-28T00:16:56.571Z,1016.14
2018-06-28T00:17:56.553Z,1016.16
2018-06-28T00:18:56.544Z,1016.14
2018-06-28T00:19:56.513Z,1016.19
2018-06-28T00:20:56.504Z,1016.15
2018-06-28T00:21:56.522Z,1016.17
2018-06-28T00:22:56.488Z,1016.16
2018-06-28T00:23:56.481Z,1016.14
2018-06-28T00:24:56.470Z,1016.12
2018-06-28T00:25:56.460Z,1016.12
2018-06-28T00:26:56.544Z,1016.13
2018-06-28T00:27:56.436Z,1016.11
2018-06-28T00:28:56.443Z,1016.04
2018-06-28T00:29:56.418Z,1016.07
2018-06-28T00:30:56.398Z,1016.06
2018-06-28T00:31:56.389Z,1016.10
2018-06-28T00:32:56.428Z,1016.08
2018-06-28T00:33:56.326Z,1016.08
2018-06-28T00:34:56.356Z,1016.12
2018-06-28T00:35:56.348Z,1016.11
2018-06-28T00:36:56.332Z,1016.12
2018-06-28T00:37:56.386Z,1016.07
2018-06-28T00:38:56.321Z,1016.04
2018-06-28T00:39:56.329Z,1016.07
2018-06-28T00:40:56.258Z,1016.08
2018-06-28T00:41:56.287Z,1016.11
2018-06-28T00:42:56.297Z,1016.13
2018-06-28T00:43:56.283Z,1016.08
2018-06-28T00:44:56.251Z,1016.08
2018-06-28T00:45:56.247Z,1016.12
2018-06-28T00:46:56.225Z,1016.13
2018-06-28T00:47:56.250Z,1016.12
2018-06-28T00:48:56.211Z,1016.10
2018-06-28T00:49:56.193Z,1016.08
2018-06-28T00:50:56.193Z,1016.11
2018-06-28T00:51:56.176Z,1016.10
2018-06-28T00:52:56.188Z,1016.09
2018-06-28T00:53:56.155Z,1016.10
2018-06-28T00:54:56.145Z,1016.12
2018-06-28T00:55:56.129Z,1016.12
2018-06-28T00:56:56.117Z,1016.13
2018-06-28T00:57:56.150Z,1016.11
2018-06-28T00:58:56.099Z,1016.10
2018-06-28T00:59:56.117Z,1016.12
2018-06-28T01:00:56.032Z,1016.13
2018-06-28T01:01:56.070Z,1016.12
2018-06-28T01:02:56.079Z,1016.10
2018-06-28T01:03:56.050Z,1016.10
2018-06-28T01:04:55.990Z,1016.08
2018-06-28T01:05:56.036Z,1016.11
2018-06-28T01:06:56.016Z,1016.13
2018-06-28T01:07:56.034Z,1016.14
2018-06-28T01:08:55.961Z,1016.12
2018-06-28T01:09:55.938Z,1016.12
2018-06-28T01:10:56.008Z,1016.16
2018-06-28T01:11:55.968Z,1016.16
2018-06-28T01:12:55.947Z,1016.21
2018-06-28T01:13:55.979Z,1016.19
2018-06-28T01:14:55.920Z,1016.15
2018-06-28T01:15:55.925Z,1016.18
2018-06-28T01:16:55.905Z,1016.22
2018-06-28T01:17:55.914Z,1016.21
2018-06-28T01:18:55.884Z,1016.22
2018-06-28T01:19:55.868Z,1016.17
2018-06-28T01:20:55.860Z,1016.13
2018-06-28T01:21:55.802Z,1016.15
2018-06-28T01:22:55.856Z,1016.10
2018-06-28T01:23:55.826Z,1016.08
2018-06-28T01:24:55.824Z,1016.10
2018-06-28T01:25:55.818Z,1016.08
2018-06-28T01:26:55.792Z,1016.06
2018-06-28T01:27:55.773Z,1016.07
2018-06-28T01:28:55.828Z,1016.07
2018-06-28T01:29:55.776Z,1016.02
2018-06-28T01:30:55.748Z,1016.06
2018-06-28T01:31:55.753Z,1016.04
2018-06-28T01:32:55.756Z,1016.06
2018-06-28T01:33:55.735Z,1016.04
2018-06-28T01:34:55.712Z,1016.06
2018-06-28T01:35:55.696Z,1016.09
2018-06-28T01:36:55.687Z,1016.09
2018-06-28T01:37:55.806Z,1016.10
2018-06-28T01:38:55.671Z,1016.08
2018-06-28T01:39:55.656Z,1016.07
2018-06-28T01:40:55.638Z,1016.05
2018-06-28T01:41:55.632Z,1016.04
2018-06-28T01:42:55.625Z,1016.05
2018-06-28T01:43:55.635Z,1016.03
2018-06-28T01:44:55.663Z,1016.03
2018-06-28T01:45:55.586Z,1016.03
2018-06-28T01:46:55.663Z,1016.05
2018-06-28T01:47:55.531Z,1016.09
2018-06-28T01:48:55.608Z,1016.06
2018-06-28T01:49:55.558Z,1016.07
2018-06-28T01:50:55.529Z,1016.08
2018-06-28T01:51:55.518Z,1016.07
2018-06-28T01:52:55.520Z,1016.08
2018-06-28T01:53:55.540Z,1016.06
2018-06-28T01:54:55.489Z,1016.09
2018-06-28T01:55:55.492Z,1016.07
2018-06-28T01:56:55.463Z,1016.04
2018-06-28T01:57:55.476Z,1016.04
2018-06-28T01:58:55.463Z,1016.03
2018-06-28T01:59:55.436Z,1016.04
2018-06-28T02:00:55.382Z,1016.04
2018-06-28T02:01:55.369Z,1016.00
2018-06-28T02:02:55.417Z,1016.00
2018-06-28T02:03:55.414Z,1016.01
2018-06-28T02:04:55.380Z,1015.96
2018-06-28T02:05:55.332Z,1015.96
2018-06-28T02:06:55.319Z,1016.01
2018-06-28T02:07:55.346Z,1016.01
2018-06-28T02:08:55.430Z,1016.03
2018-06-28T02:09:55.330Z,1016.03
2018-06-28T02:10:55.314Z,1016.09
2018-06-28T02:11:55.304Z,1016.04
2018-06-28T02:12:55.252Z,1016.09
2018-06-28T02:13:55.314Z,1016.13
2018-06-28T02:14:55.267Z,1016.06
2018-06-28T02:15:55.216Z,1016.09
2018-06-28T02:16:55.246Z,1016.13
2018-06-28T02:17:55.246Z,1016.04
2018-06-28T02:18:55.243Z,1016.08
2018-06-28T02:19:55.218Z,1016.09
2018-06-28T02:20:55.162Z,1016.07
2018-06-28T02:21:55.163Z,1016.07
2018-06-28T02:22:55.189Z,1016.13
2018-06-28T02:23:55.199Z,1016.06
2018-06-28T02:24:55.155Z,1016.09
2018-06-28T02:25:55.150Z,1016.06
2018-06-28T02:26:55.153Z,1016.07
2018-06-28T02:27:55.138Z,1016.11
2018-06-28T02:28:55.146Z,1016.11
2018-06-28T02:29:55.117Z,1016.08
2018-06-28T02:30:55.101Z,1016.13
2018-06-28T02:31:55.090Z,1016.06
2018-06-28T02:32:55.082Z,1016.05
2018-06-28T02:33:55.100Z,1016.06
2018-06-28T02:34:55.056Z,1016.05
2018-06-28T02:35:55.002Z,1016.06
2018-06-28T02:36:55.068Z,1016.08
2018-06-28T02:37:55.020Z,1016.06
2018-06-28T02:38:55.029Z,1016.09
2018-06-28T02:39:55.027Z,1016.05
2018-06-28T02:40:54.991Z,1016.07
2018-06-28T02:41:54.989Z,1016.08
2018-06-28T02:42:54.965Z,1016.06
2018-06-28T02:43:55.020Z,1016.03
2018-06-28T02:44:54.946Z,1016.08
2018-06-28T02:45:54.949Z,1016.06
2018-06-28T02:46:54.924Z,1015.99
2018-06-28T02:47:54.908Z,1016.01
2018-06-28T02:48:54.985Z,1016.03
2018-06-28T02:49:54.888Z,1016.08
2018-06-28T02:50:54.882Z,1016.08
2018-06-28T02:51:54.825Z,1016.11
2018-06-28T02:52:54.863Z,1016.11
2018-06-28T02:53:54.865Z,1016.13
2018-06-28T02:54:54.836Z,1016.09
2018-06-28T02:55:54.828Z,1016.11
2018-06-28T02:56:54.823Z,1016.10
2018-06-28T02:57:54.817Z,1016.11
2018-06-28T02:58:54.818Z,1016.09
2018-06-28T02:59:54.737Z,1016.13
2018-06-28T03:00:54.764Z,1016.06
2018-06-28T03:01:54.719Z,1016.05
2018-06-28T03:02:54.708Z,1016.06
2018-06-28T03:03:54.761Z,1016.09
2018-06-28T03:04:54.793Z,1016.03
2018-06-28T03:05:54.723Z,1016.06
2018-06-28T03:06:54.706Z,1016.08
2018-06-28T03:07:54.697Z,1016.03
2018-06-28T03:08:54.712Z,1016.05
2018-06-28T03:09:54.678Z,1016.09
2018-06-28T03:10:54.673Z,1016.11
2018-06-28T03:11:54.605Z,1016.09
2018-06-28T03:12:54.641Z,1016.15
2018-06-28T03:13:54.629Z,1016.11
2018-06-28T03:14:54.639Z,1016.10
2018-06-28T03:15:54.562Z,1016.15
2018-06-28T03:16:54.601Z,1016.10
2018-06-28T03:17:54.583Z,1016.10
2018-06-28T03:18:54.578Z,1016.10
2018-06-28T03:19:54.597Z,1016.15
2018-06-28T03:20:54.649Z,1016.15
2018-06-28T03:21:54.540Z,1016.12
2018-06-28T03:22:54.527Z,1016.14
2018-06-28T03:23:54.560Z,1016.10
2018-06-28T03:24:54.530Z,1016.13
2018-06-28T03:25:54.494Z,1016.12
2018-06-28T03:26:54.508Z,1016.13
2018-06-28T03:27:54.478Z,1016.10
2018-06-28T03:28:54.462Z,1016.10
2018-06-28T03:29:54.429Z,1016.10
2018-06-28T03:30:54.512Z,1016.13
2018-06-28T03:31:54.425Z,1016.11
2018-06-28T03:32:54.426Z,1016.13
2018-06-28T03:33:54.403Z,1016.14
2018-06-28T03:34:54.372Z,1016.10
2018-06-28T03:35:54.402Z,1016.10
2018-06-28T03:36:54.388Z,1016.12
2018-06-28T03:37:54.442Z,1016.12
2018-06-28T03:38:54.368Z,1016.07
2018-06-28T03:39:54.365Z,1016.08
2018-06-28T03:40:54.346Z,1016.13
2018-06-28T03:41:54.290Z,1016.09
2018-06-28T03:42:54.318Z,1016.12
2018-06-28T03:43:54.308Z,1016.11
2018-06-28T03:44:54.369Z,1016.09
2018-06-28T03:45:54.350Z,1016.11
2018-06-28T03:46:54.275Z,1016.11
2018-06-28T03:47:54.269Z,1016.17
2018-06-28T03:48:54.245Z,1016.18
2018-06-28T03:49:54.263Z,1016.20
2018-06-28T03:50:54.229Z,1016.14
2018-06-28T03:51:54.214Z,1016.19
2018-06-28T03:52:54.208Z,1016.19
2018-06-28T03:53:54.252Z,1016.21
2018-06-28T03:54:54.208Z,1016.16
2018-06-28T03:55:54.170Z,1016.17
2018-06-28T03:56:54.149Z,1016.17
2018-06-28T03:57:54.138Z,1016.18
2018-06-28T03:58:54.138Z,1016.20
2018-06-28T03:59:54.146Z,1016.21
2018-06-28T04:00:54.153Z,1016.20
2018-06-28T04:01:54.133Z,1016.20
2018-06-28T04:02:54.084Z,1016.22
2018-06-28T04:03:54.080Z,1016.18
2018-06-28T04:04:54.093Z,1016.21
2018-06-28T04:05:54.065Z,1016.22
2018-06-28T04:06:54.055Z,1016.29
2018-06-28T04:07:54.034Z,1016.24
2018-06-28T04:08:54.025Z,1016.25
2018-06-28T04:09:54.029Z,1016.27
2018-06-28T04:10:54.003Z,1016.26
2018-06-28T04:11:53.944Z,1016.28
2018-06-28T04:12:54.000Z,1016.32
2018-06-28T04:13:53.969Z,1016.29
2018-06-28T04:14:53.984Z,1016.32
2018-06-28T04:15:53.946Z,1016.25
2018-06-28T04:16:54.002Z,1016.26
2018-06-28T04:17:53.945Z,1016.26
2018-06-28T04:18:53.914Z,1016.24
2018-06-28T04:19:53.958Z,1016.27
2018-06-28T04:20:53.897Z,1016.31
2018-06-28T04:21:53.909Z,1016.32
2018-06-28T04:22:53.827Z,1016.32
2018-06-28T04:23:53.859Z,1016.32
2018-06-28T04:24:53.890Z,1016.29
2018-06-28T04:25:53.842Z,1016.31
2018-06-28T04:26:53.836Z,1016.32
2018-06-28T04:27:53.820Z,1016.38
2018-06-28T04:28:53.809Z,1016.36
2018-06-28T04:29:53.846Z,1016.37
2018-06-28T04:30:53.782Z,1016.33
2018-06-28T04:31:53.779Z,1016.35
2018-06-28T04:32:53.763Z,1016.34
2018-06-28T04:33:53.754Z,1016.35
2018-06-28T04:34:53.762Z,1016.42
2018-06-28T04:35:53.733Z,1016.34
2018-06-28T04:36:53.719Z,1016.33
2018-06-28T04:37:53.677Z,1016.36
2018-06-28T04:38:53.714Z,1016.37
2018-06-28T04:39:53.733Z,1016.36
2018-06-28T04:40:53.800Z,1016.40
2018-06-28T04:41:53.665Z,1016.34
2018-06-28T04:42:53.672Z,1016.36
2018-06-28T04:43:53.657Z,1016.35
2018-06-28T04:44:53.678Z,1016.40
2018-06-28T04:45:53.639Z,1016.38
2018-06-28T04:46:53.619Z,1016.34
2018-06-28T04:47:53.600Z,1016.38
2018-06-28T04:48:53.549Z,1016.41
2018-06-28T04:49:53.586Z,1016.38
2018-06-28T04:50:53.543Z,1016.39
2018-06-28T04:51:53.568Z,1016.48
2018-06-28T04:52:53.547Z,1016.43
2018-06-28T04:53:53.550Z,1016.39
2018-06-28T04:54:53.532Z,1016.39
2018-06-28T04:55:53.541Z,1016.42
2018-06-28T04:56:53.564Z,1016.38
2018-06-28T04:57:53.506Z,1016.37
2018-06-28T04:58:53.525Z,1016.38
2018-06-28T04:59:53.483Z,1016.35
2018-06-28T05:00:53.492Z,1016.32
2018-06-28T05:01:53.453Z,1016.37
2018-06-28T05:02:53.436Z,1016.31
2018-06-28T05:03:53.444Z,1016.28
2018-06-28T05:04:53.421Z,1016.32
2018-06-28T05:05:53.436Z,1016.32
2018-06-28T05:06:53.400Z,1016.33
2018-06-28T05:07:53.396Z,1016.31
2018-06-28T05:08:53.371Z,1016.31
2018-06-28T05:09:53.314Z,1016.35
2018-06-28T05:10:53.371Z,1016.33
2018-06-28T05:11:53.333Z,1016.33
2018-06-28T05:12:53.424Z,1016.34
2018-06-28T05:13:53.328Z,1016.38
2018-06-28T05:14:53.301Z,1016.35
2018-06-28T05:15:53.316Z,1016.37
2018-06-28T05:16:53.229Z,1016.33
2018-06-28T05:17:53.261Z,1016.33
2018-06-28T05:18:53.258Z,1016.34
2018-06-28T05:19:53.246Z,1016.30
2018-06-28T05:20:53.319Z,1016.32
2018-06-28T05:21:53.230Z,1016.32
2018-06-28T05:22:53.253Z,1016.32
2018-06-28T05:23:53.217Z,1016.32
2018-06-28T05:24:53.191Z,1016.28
2018-06-28T05:25:53.208Z,1016.30
2018-06-28T05:26:53.165Z,1016.29
2018-06-28T05:27:53.191Z,1016.31
2018-06-28T05:28:53.157Z,1016.27
2018-06-28T05:29:53.131Z,1016.29
2018-06-28T05:30:53.152Z,1016.25
2018-06-28T05:31:53.114Z,1016.25
2018-06-28T05:32:53.106Z,1016.27
2018-06-28T05:33:53.093Z,1016.28
2018-06-28T05:34:53.128Z,1016.28
2018-06-28T05:35:53.093Z,1016.27
2018-06-28T05:36:53.018Z,1016.27
2018-06-28T05:37:53.044Z,1016.23
2018-06-28T05:38:53.038Z,1016.22
2018-06-28T05:39:53.035Z,1016.22
2018-06-28T05:40:53.056Z,1016.26
2018-06-28T05:41:53.002Z,1016.30
2018-06-28T05:42:53.000Z,1016.26
2018-06-28T05:43:52.982Z,1016.26
2018-06-28T05:44:52.978Z,1016.26
2018-06-28T05:45:52.987Z,1016.28
2018-06-28T05:46:52.966Z,1016.27
2018-06-28T05:47:52.941Z,1016.28
2018-06-28T05:48:52.928Z,1016.31
2018-06-28T05:49:52.917Z,1016.28
2018-06-28T05:50:52.930Z,1016.30
2018-06-28T05:51:52.899Z,1016.32
2018-06-28T05:52:52.927Z,1016.32
2018-06-28T05:53:52.884Z,1016.39
2018-06-28T05:54:52.859Z,1016.35
2018-06-28T05:55:52.888Z,1016.33
2018-06-28T05:56:52.837Z,1016.29
2018-06-28T05:57:52.827Z,1016.28
2018-06-28T05:58:52.836Z,1016.29
2018-06-28T05:59:52.807Z,1016.32
2018-06-28T06:00:52.820Z,1016.27
2018-06-28T06:01:52.783Z,1016.26
2018-06-28T06:02:52.777Z,1016.24
2018-06-28T06:03:52.772Z,1016.24
2018-06-28T06:04:52.751Z,1016.25
2018-06-28T06:05:52.741Z,1016.26
2018-06-28T06:06:52.763Z,1016.23
2018-06-28T06:07:52.672Z,1016.19
2018-06-28T06:08:52.665Z,1016.22
2018-06-28T06:09:52.696Z,1016.24
2018-06-28T06:10:52.806Z,1016.27
2018-06-28T06:11:52.698Z,1016.29
2018-06-28T06:12:52.665Z,1016.23
2018-06-28T06:13:52.622Z,1016.25
2018-06-28T06:14:52.639Z,1016.24
2018-06-28T06:15:52.626Z,1016.24
2018-06-28T06:16:52.731Z,1016.23
2018-06-28T06:17:52.608Z,1016.23
2018-06-28T06:18:52.598Z,1016.18
2018-06-28T06:19:52.602Z,1016.20
2018-06-28T06:20:52.574Z,1016.23
2018-06-28T06:21:52.588Z,1016.28
2018-06-28T06:22:52.556Z,1016.27
2018-06-28T06:23:52.545Z,1016.27
2018-06-28T06:24:52.532Z,1016.24
2018-06-28T06:25:52.521Z,1016.29
2018-06-28T06:26:52.535Z,1016.30
2018-06-28T06:27:52.455Z,1016.28
2018-06-28T06:28:52.496Z,1016.35
2018-06-28T06:29:52.495Z,1016.34
2018-06-28T06:30:52.467Z,1016.33
2018-06-28T06:31:52.472Z,1016.40
2018-06-28T06:32:52.448Z,1016.46
2018-06-28T06:33:52.450Z,1016.48
2018-06-28T06:34:52.425Z,1016.52
2018-06-28T06:35:52.415Z,1016.55
2018-06-28T06:36:52.447Z,1016.49
2018-06-28T06:37:52.391Z,1016.51
2018-06-28T06:38:52.386Z,1016.60
2018-06-28T06:39:52.375Z,1016.49
2018-06-28T06:40:52.354Z,1016.52
2018-06-28T06:41:52.451Z,1016.49
2018-06-28T06:42:52.336Z,1016.47
2018-06-28T06:43:52.338Z,1016.51
2018-06-28T06:44:52.326Z,1016.57
2018-06-28T06:45:52.311Z,1016.49
2018-06-28T06:46:52.320Z,1016.55
2018-06-28T06:47:52.284Z,1016.51
2018-06-28T06:48:52.330Z,1016.44
2018-06-28T06:49:52.271Z,1016.47
2018-06-28T06:50:52.271Z,1016.45
2018-06-28T06:51:52.278Z,1016.47
2018-06-28T06:52:52.261Z,1016.47
2018-06-28T06:53:52.227Z,1016.45
2018-06-28T06:54:52.210Z,1016.48
2018-06-28T06:55:52.198Z,1016.46
2018-06-28T06:56:52.218Z,1016.50
2018-06-28T06:57:52.174Z,1016.55
2018-06-28T06:58:52.171Z,1016.49
2018-06-28T06:59:52.158Z,1016.57
2018-06-28T07:00:52.148Z,1016.55
2018-06-28T07:01:52.153Z,1016.55
2018-06-28T07:02:52.130Z,1016.52
2018-06-28T07:03:52.120Z,1016.48
2018-06-28T07:04:52.117Z,1016.53
2018-06-28T07:05:52.096Z,1016.52
2018-06-28T07:06:52.109Z,1016.51
2018-06-28T07:07:52.072Z,1016.50
2018-06-28T07:08:52.067Z,1016.53
2018-06-28T07:09:52.027Z,1016.52
2018-06-28T07:10:52.044Z,1016.52
2018-06-28T07:11:52.054Z,1016.51
2018-06-28T07:12:51.993Z,1016.49
2018-06-28T07:13:52.027Z,1016.48
2018-06-28T07:14:52.007Z,1016.47
2018-06-28T07:15:51.955Z,1016.50
2018-06-28T07:16:52.011Z,1016.55
2018-06-28T07:17:51.990Z,1016.59
2018-06-28T07:18:51.965Z,1016.63
2018-06-28T07:19:51.956Z,1016.63
2018-06-28T07:20:51.948Z,1016.60
2018-06-28T07:21:51.962Z,1016.62
2018-06-28T07:22:51.966Z,1016.64
2018-06-28T07:23:51.923Z,1016.63
2018-06-28T07:24:51.900Z,1016.69
2018-06-28T07:25:52.000Z,1016.66
2018-06-28T07:26:51.925Z,1016.64
2018-06-28T07:27:51.868Z,1016.62
2018-06-28T07:28:52.590Z,1016.66
2018-06-28T07:29:51.857Z,1016.63
2018-06-28T07:30:51.844Z,1016.60
2018-06-28T07:31:51.855Z,1016.64
2018-06-28T07:32:51.800Z,1016.62
2018-06-28T07:33:51.810Z,1016.60
2018-06-28T07:34:51.797Z,1016.62
2018-06-28T07:35:51.791Z,1016.61
2018-06-28T07:36:51.816Z,1016.60
2018-06-28T07:37:51.806Z,1016.56
2018-06-28T07:38:51.764Z,1016.59
2018-06-28T07:39:51.746Z,1016.59
2018-06-28T07:40:51.770Z,1016.64
2018-06-28T07:41:51.687Z,1016.61
2018-06-28T07:42:51.746Z,1016.60
2018-06-28T07:43:51.743Z,1016.60
2018-06-28T07:44:51.697Z,1016.56
2018-06-28T07:45:51.694Z,1016.57
2018-06-28T07:46:51.720Z,1016.55
2018-06-28T07:47:51.712Z,1016.57
2018-06-28T07:48:51.665Z,1016.54
2018-06-28T07:49:51.603Z,1016.53
2018-06-28T07:50:51.672Z,1016.55
2018-06-28T07:51:51.624Z,1016.55
2018-06-28T07:52:51.681Z,1016.53
2018-06-28T07:53:51.618Z,1016.51
2018-06-28T07:54:51.593Z,1016.41
2018-06-28T07:55:51.586Z,1016.52
2018-06-28T07:56:51.572Z,1016.46
2018-06-28T07:57:51.585Z,1016.52
2018-06-28T07:58:51.578Z,1016.46
2018-06-28T07:59:51.546Z,1016.49
2018-06-28T08:00:51.533Z,1016.49
2018-06-28T08:01:51.521Z,1016.43
2018-06-28T08:02:51.547Z,1016.48
2018-06-28T08:03:51.457Z,1016.45
2018-06-28T08:04:51.494Z,1016.44
2018-06-28T08:05:51.623Z,1016.44
2018-06-28T08:06:51.469Z,1016.45
2018-06-28T08:07:51.483Z,1016.50
2018-06-28T08:08:51.451Z,1016.44
2018-06-28T08:09:51.463Z,1016.41
2018-06-28T08:10:51.426Z,1016.40
2018-06-28T08:11:51.428Z,1016.42
2018-06-28T08:12:51.442Z,1016.46
2018-06-28T08:13:51.404Z,1016.44
2018-06-28T08:14:51.399Z,1016.38
2018-06-28T08:15:51.373Z,1016.37
2018-06-28T08:16:51.368Z,1016.38
2018-06-28T08:17:51.377Z,1016.45
2018-06-28T08:18:51.353Z,1016.38
2018-06-28T08:19:51.339Z,1016.40
2018-06-28T08:20:51.331Z,1016.38
2018-06-28T08:21:51.285Z,1016.42
2018-06-28T08:22:51.327Z,1016.41
2018-06-28T08:23:51.310Z,1016.36
2018-06-28T08:24:51.289Z,1016.37
2018-06-28T08:25:51.241Z,1016.41
2018-06-28T08:26:51.311Z,1016.38
2018-06-28T08:27:51.285Z,1016.32
2018-06-28T08:28:51.257Z,1016.37
2018-06-28T08:29:51.260Z,1016.38
2018-06-28T08:30:51.225Z,1016.43
2018-06-28T08:31:51.216Z,1016.36
2018-06-28T08:32:51.231Z,1016.34
2018-06-28T08:33:51.199Z,1016.32
2018-06-28T08:34:51.199Z,1016.28
2018-06-28T08:35:51.229Z,1016.36
2018-06-28T08:36:51.182Z,1016.33
2018-06-28T08:37:51.183Z,1016.37
2018-06-28T08:38:51.144Z,1016.26
2018-06-28T08:39:51.140Z,1016.29
2018-06-28T08:40:51.123Z,1016.31
2018-06-28T08:41:51.115Z,1016.27
2018-06-28T08:42:51.142Z,1016.28
2018-06-28T08:43:51.096Z,1016.25
2018-06-28T08:44:51.079Z,1016.25
2018-06-28T08:45:51.032Z,1016.27
2018-06-28T08:46:51.062Z,1016.24
2018-06-28T08:47:51.049Z,1016.28
2018-06-28T08:48:51.078Z,1016.23
2018-06-28T08:49:51.036Z,1016.17
2018-06-28T08:50:51.042Z,1016.05
2018-06-28T08:51:51.019Z,1016.07
2018-06-28T08:52:50.995Z,1016.05
2018-06-28T08:53:51.009Z,1016.01
2018-06-28T08:54:50.931Z,1016.03
2018-06-28T08:55:51.216Z,1015.98
2018-06-28T08:56:51.215Z,1016.10
2018-06-28T08:57:50.997Z,1016.02
2018-06-28T08:58:50.921Z,1016.01
2018-06-28T08:59:50.924Z,1015.95
2018-06-28T09:00:50.886Z,1015.96
2018-06-28T09:01:51.013Z,1016.00
2018-06-28T09:02:50.907Z,1015.92
2018-06-28T09:03:50.904Z,1015.92
2018-06-28T09:04:50.881Z,1015.92
2018-06-28T09:05:50.892Z,1015.83
2018-06-28T09:06:50.850Z,1015.82
2018-06-28T09:07:50.840Z,1015.83
2018-06-28T09:08:50.813Z,1015.83
2018-06-28T09:09:50.826Z,1015.90
2018-06-28T09:10:50.810Z,1015.78
2018-06-28T09:11:50.797Z,1015.82
2018-06-28T09:12:50.751Z,1015.78
2018-06-28T09:13:50.830Z,1015.79
2018-06-28T09:14:50.775Z,1015.78
2018-06-28T09:15:50.761Z,1015.73
2018-06-28T09:16:50.750Z,1015.75
2018-06-28T09:17:50.852Z,1015.78
2018-06-28T09:18:50.750Z,1015.76
2018-06-28T09:19:50.727Z,1015.82
2018-06-28T09:20:50.711Z,1015.82
2018-06-28T09:21:50.693Z,1015.76
2018-06-28T09:22:50.736Z,1015.75
2018-06-28T09:23:50.697Z,1015.79
2018-06-28T09:24:50.665Z,1015.79
2018-06-28T09:25:50.774Z,1015.84
2018-06-28T09:26:50.603Z,1015.76
2018-06-28T09:27:50.630Z,1015.77
2018-06-28T09:28:50.664Z,1015.82
2018-06-28T09:29:50.621Z,1015.73
2018-06-28T09:30:50.600Z,1015.73
2018-06-28T09:31:50.590Z,1015.73
2018-06-28T09:32:50.585Z,1015.75
2018-06-28T09:33:50.602Z,1015.68
2018-06-28T09:34:50.565Z,1015.71
2018-06-28T09:35:50.571Z,1015.65
2018-06-28T09:36:50.534Z,1015.68
2018-06-28T09:37:50.531Z,1015.65
2018-06-28T09:38:50.510Z,1015.61
2018-06-28T09:39:50.512Z,1015.76
2018-06-28T09:40:50.498Z,1015.55
2018-06-28T09:41:50.494Z,1015.53
2018-06-28T09:42:50.480Z,1015.52
2018-06-28T09:43:50.485Z,1015.59
2018-06-28T09:44:50.545Z,1015.55
2018-06-28T09:45:50.448Z,1015.52
2018-06-28T09:46:50.440Z,1015.49
2018-06-28T09:47:50.433Z,1015.47
2018-06-28T09:48:50.432Z,1015.43
2018-06-28T09:49:50.405Z,1015.51
2018-06-28T09:50:50.364Z,1015.44
2018-06-28T09:51:50.408Z,1015.41
2018-06-28T09:52:50.369Z,1015.42
2018-06-28T09:53:50.389Z,1015.48
2018-06-28T09:54:50.412Z,1015.46
2018-06-28T09:55:50.349Z,1015.41
2018-06-28T09:56:50.287Z,1015.40
2018-06-28T09:57:50.295Z,1015.34
2018-06-28T09:58:50.347Z,1015.40
2018-06-28T09:59:50.349Z,1015.35
2018-06-28T10:00:50.344Z,1015.35
2018-06-28T10:01:50.240Z,1015.38
2018-06-28T10:02:50.229Z,1015.41
2018-06-28T10:03:50.292Z,1015.47
2018-06-28T10:04:50.250Z,1015.41
2018-06-28T10:05:50.236Z,1015.43
2018-06-28T10:06:50.257Z,1015.36
2018-06-28T10:07:50.173Z,1015.39
2018-06-28T10:08:50.232Z,1015.36
2018-06-28T10:09:50.215Z,1015.38
2018-06-28T10:10:50.192Z,1015.34
2018-06-28T10:11:50.172Z,1015.33
2018-06-28T10:12:50.159Z,1015.33
2018-06-28T10:13:50.184Z,1015.32
2018-06-28T10:14:50.153Z,1015.25
2018-06-28T10:15:50.147Z,1015.19
2018-06-28T10:16:50.132Z,1015.13
2018-06-28T10:17:50.110Z,1015.20
2018-06-28T10:18:50.160Z,1015.23
2018-06-28T10:19:50.131Z,1015.20
2018-06-28T10:20:50.073Z,1015.15
2018-06-28T10:21:50.156Z,1015.16
2018-06-28T10:22:50.063Z,1015.19
2018-06-28T10:23:50.054Z,1015.19
2018-06-28T10:24:50.058Z,1015.22
2018-06-28T10:25:50.043Z,1015.15
2018-06-28T10:26:50.024Z,1015.18
2018-06-28T10:27:50.005Z,1015.13
2018-06-28T10:28:49.947Z,1015.11
2018-06-28T10:29:50.010Z,1015.08
2018-06-28T10:30:49.972Z,1015.05
2018-06-28T10:31:49.969Z,1015.05
2018-06-28T10:32:50.049Z,1015.03
2018-06-28T10:33:49.935Z,1014.98
2018-06-28T10:34:49.928Z,1015.02
2018-06-28T10:35:49.921Z,1014.98
2018-06-28T10:36:49.907Z,1015.07
2018-06-28T10:37:49.859Z,1015.04
2018-06-28T10:38:49.892Z,1014.98
2018-06-28T10:39:49.906Z,1014.97
2018-06-28T10:40:49.867Z,1014.99
2018-06-28T10:41:49.865Z,1015.01
2018-06-28T10:42:49.843Z,1014.95
2018-06-28T10:43:49.888Z,1014.93
2018-06-28T10:44:49.860Z,1014.90
2018-06-28T10:45:49.811Z,1014.89
2018-06-28T10:46:49.800Z,1014.89
2018-06-28T10:47:49.798Z,1014.87
2018-06-28T10:48:49.823Z,1014.82
2018-06-28T10:49:49.804Z,1014.82
2018-06-28T10:50:49.760Z,1014.78
2018-06-28T10:51:49.764Z,1014.86
2018-06-28T10:52:49.737Z,1014.81
2018-06-28T10:53:49.807Z,1014.79
2018-06-28T10:54:49.745Z,1014.85
2018-06-28T10:55:49.722Z,1014.77
2018-06-28T10:56:49.710Z,1014.80
2018-06-28T10:57:49.645Z,1014.80
2018-06-28T10:58:49.678Z,1014.72
2018-06-28T10:59:49.721Z,1014.68
2018-06-28T11:00:49.656Z,1014.64
2018-06-28T11:01:49.733Z,1014.69
2018-06-28T11:02:49.642Z,1014.71
2018-06-28T11:03:49.637Z,1014.78
2018-06-28T11:04:49.643Z,1014.66
2018-06-28T11:05:49.601Z,1014.75
2018-06-28T11:06:49.588Z,1014.80
2018-06-28T11:07:49.612Z,1014.74
2018-06-28T11:08:49.583Z,1014.79
2018-06-28T11:09:49.580Z,1014.72
2018-06-28T11:10:49.552Z,1014.73
2018-06-28T11:11:49.540Z,1014.63
2018-06-28T11:12:49.523Z,1014.65
2018-06-28T11:13:49.523Z,1014.63
2018-06-28T11:14:49.531Z,1014.61
2018-06-28T11:15:49.604Z,1014.62
2018-06-28T11:16:49.448Z,1014.59
2018-06-28T11:17:49.482Z,1014.53
2018-06-28T11:18:49.468Z,1014.51
2018-06-28T11:19:49.499Z,1014.57
2018-06-28T11:20:49.445Z,1014.44
2018-06-28T11:21:49.435Z,1014.51
2018-06-28T11:22:49.437Z,1014.53
2018-06-28T11:23:49.367Z,1014.49
2018-06-28T11:24:49.441Z,1014.45
2018-06-28T11:25:49.393Z,1014.47
2018-06-28T11:26:49.402Z,1014.48
2018-06-28T11:27:49.364Z,1014.53
2018-06-28T11:28:49.354Z,1014.50
2018-06-28T11:29:49.370Z,1014.56
2018-06-28T11:30:49.309Z,1014.51
2018-06-28T11:31:49.336Z,1014.47
2018-06-28T11:32:49.318Z,1014.41
2018-06-28T11:33:49.263Z,1014.43
2018-06-28T11:34:49.309Z,1014.38
2018-06-28T11:35:49.296Z,1014.36
2018-06-28T11:36:49.268Z,1014.41
2018-06-28T11:37:49.217Z,1014.40
2018-06-28T11:38:49.246Z,1014.32
2018-06-28T11:39:49.270Z,1014.33
2018-06-28T11:40:49.229Z,1014.39
2018-06-28T11:41:49.224Z,1014.35
2018-06-28T11:42:49.225Z,1014.40
2018-06-28T11:43:49.195Z,1014.35
2018-06-28T11:44:49.220Z,1014.24
2018-06-28T11:45:49.187Z,1014.18
2018-06-28T11:46:49.163Z,1014.23
2018-06-28T11:47:49.166Z,1014.23
2018-06-28T11:48:49.142Z,1014.14
2018-06-28T11:49:49.137Z,1014.22
2018-06-28T11:50:49.152Z,1014.21
2018-06-28T11:51:49.111Z,1014.18
2018-06-28T11:52:49.108Z,1014.17
2018-06-28T11:53:49.100Z,1014.12
2018-06-28T11:54:49.110Z,1014.12
2018-06-28T11:55:49.096Z,1014.12
2018-06-28T11:56:49.058Z,1014.18
2018-06-28T11:57:49.060Z,1014.12
2018-06-28T11:58:49.039Z,1014.13
2018-06-28T11:59:49.037Z,1014.11
2018-06-28T12:00:49.042Z,1014.11
2018-06-28T12:01:49.037Z,1014.04
2018-06-28T12:02:48.950Z,1013.98
2018-06-28T12:03:48.992Z,1014.01
2018-06-28T12:04:48.975Z,1014.01
2018-06-28T12:05:48.945Z,1014.02